Time;durP1;ratioP1;P1;durP2;ratioP2;P2;SDS_P1;SDS_P2;PMS_P1;PMS_P2;Temp;Humidity;BMP_temperature;BMP_pressure;BME280_temperature;BME280_humidity;BME280_pressure;Samples;Min_cycle;Max_cycle;Signal;HPM_P1;HPM_P2
2023/03/29 00:01:57;;;;;;;5.90;2.55;;;4.80;99.90;;;;;;5074351;28;20041;-20
2023/03/29 00:04:26;;;;;;;7.10;3.45;;;4.80;99.90;;;;;;5074308;28;20044;-20
2023/03/29 00:06:52;;;;;;;4.97;2.97;;;4.80;99.90;;;;;;5074799;28;20044;-20
2023/03/29 00:09:18;;;;;;;5.15;2.50;;;4.80;99.90;;;;;;5073654;28;20055;-20
2023/03/29 00:11:44;;;;;;;7.85;3.10;;;4.80;99.90;;;;;;5074090;28;20403;-20
2023/03/29 00:14:11;;;;;;;4.57;2.50;;;4.90;99.90;;;;;;5074192;28;20143;-20
2023/03/29 00:16:37;;;;;;;4.57;2.80;;;4.90;91.80;;;;;;5074448;28;20040;-20
2023/03/29 00:19:03;;;;;;;4.63;2.63;;;4.90;86.40;;;;;;5074120;28;20540;-20
2023/03/29 00:21:29;;;;;;;6.65;2.47;;;5.30;77.50;;;;;;5074080;28;20106;-20
2023/03/29 00:23:56;;;;;;;4.40;2.70;;;4.80;88.40;;;;;;5056421;28;20048;-20
2023/03/29 00:26:21;;;;;;;5.47;2.80;;;4.80;99.90;;;;;;5074000;28;20054;-20
2023/03/29 00:28:47;;;;;;;4.38;2.30;;;4.80;95.40;;;;;;5074484;28;20389;-20
2023/03/29 00:31:15;;;;;;;9.02;2.28;;;4.80;89.00;;;;;;5073892;28;20040;-20
2023/03/29 00:33:42;;;;;;;7.40;2.80;;;4.90;49.20;;;;;;5073821;28;20044;-20
2023/03/29 00:36:11;;;;;;;4.95;2.65;;;4.90;1.00;;;;;;5073833;28;20048;-20
2023/03/29 00:38:37;;;;;;;7.18;2.80;;;4.90;1.00;;;;;;5073881;28;20109;-20
2023/03/29 00:41:05;;;;;;;6.22;3.05;;;5.00;1.00;;;;;;5073831;28;20037;-20
2023/03/29 00:43:49;;;;;;;6.53;2.42;;;4.90;1.00;;;;;;5072805;28;20532;-20
2023/03/29 00:46:15;;;;;;;8.03;2.47;;;4.90;1.00;;;;;;5073879;28;20152;-20
2023/03/29 00:48:41;;;;;;;3.80;2.17;;;4.90;1.00;;;;;;5074287;28;20484;-20
2023/03/29 00:51:11;;;;;;;5.15;2.72;;;4.90;1.00;;;;;;5073447;28;20052;-20
2023/03/29 00:53:49;;;;;;;5.65;2.92;;;4.90;1.00;;;;;;5073250;28;20049;-20
2023/03/29 00:56:23;;;;;;;4.53;2.65;;;4.90;1.00;;;;;;5073448;28;20486;-20
2023/03/29 00:58:59;;;;;;;3.50;2.00;;;4.90;1.00;;;;;;5072463;28;20044;-20
2023/03/29 01:01:40;;;;;;;6.22;2.80;;;5.00;1.00;;;;;;5074157;28;20449;-20
2023/03/29 01:04:21;;;;;;;4.32;2.15;;;5.00;1.00;;;;;;5074168;28;20045;-20
2023/03/29 01:07:01;;;;;;;5.65;2.78;;;5.00;1.00;;;;;;5073631;28;20052;-20
2023/03/29 01:09:29;;;;;;;4.35;1.98;;;5.00;1.00;;;;;;5073534;28;20502;-20
2023/03/29 01:11:59;;;;;;;3.40;1.83;;;5.00;1.00;;;;;;5073493;28;20120;-20
2023/03/29 01:14:37;;;;;;;7.60;2.30;;;5.10;1.00;;;;;;5073460;28;20087;-20
2023/03/29 01:17:03;;;;;;;3.35;2.00;;;5.10;1.00;;;;;;5074083;28;20048;-20
2023/03/29 01:19:39;;;;;;;3.15;1.98;;;5.10;1.00;;;;;;5073369;28;20056;-20
2023/03/29 01:22:17;;;;;;;3.28;1.60;;;5.10;1.00;;;;;;5073422;28;20513;-20
2023/03/29 01:24:44;;;;;;;2.90;1.85;;;5.10;1.00;;;;;;5073685;28;20127;-20
2023/03/29 01:27:50;;;;;;;5.00;2.17;;;5.10;1.00;;;;;;5072167;28;20375;-19
2023/03/29 01:31:07;;;;;;;5.55;1.98;;;5.10;1.00;;;;;;5075849;28;20553;-20
2023/03/29 01:33:48;;;;;;;2.58;1.70;;;5.10;1.00;;;;;;5058105;28;20045;-20
2023/03/29 01:36:19;;;;;;;4.53;2.50;;;5.10;1.00;;;;;;5077094;28;20092;-20
2023/03/29 01:38:51;;;;;;;4.18;2.30;;;5.10;1.00;;;;;;5077185;28;20040;-20
2023/03/29 01:41:17;;;;;;;7.22;2.08;;;5.00;1.00;;;;;;5077362;28;20481;-20
2023/03/29 01:43:57;;;;;;;4.47;2.08;;;5.00;1.00;;;;;;5077047;28;20052;-20
2023/03/29 01:46:31;;;;;;;4.35;2.55;;;5.00;1.00;;;;;;5077006;28;20055;-20
2023/03/29 01:49:12;;;;;;;4.53;2.20;;;5.00;1.00;;;;;;5076973;28;20048;-20
2023/03/29 01:52:27;;;;;;;7.18;2.63;;;5.00;1.00;;;;;;5076591;28;20056;-20
2023/03/29 01:54:59;;;;;;;4.32;2.70;;;5.00;1.00;;;;;;5068253;28;20099;-20
2023/03/29 01:57:25;;;;;;;7.60;2.20;;;5.00;1.00;;;;;;5077489;28;20387;-20
2023/03/29 01:59:54;;;;;;;6.63;2.67;;;4.90;1.00;;;;;;5076704;28;20482;-20
2023/03/29 02:02:23;;;;;;;4.53;1.77;;;4.90;1.00;;;;;;5076667;28;20101;-20
2023/03/29 02:04:53;;;;;;;7.45;2.50;;;5.00;1.00;;;;;;5076646;28;20109;-20
2023/03/29 02:07:25;;;;;;;3.97;2.35;;;4.90;1.00;;;;;;5075435;28;20044;-20
2023/03/29 02:09:52;;;;;;;6.25;2.55;;;4.90;1.00;;;;;;5075910;28;20390;-20
2023/03/29 02:12:19;;;;;;;5.38;2.40;;;4.90;1.00;;;;;;5076486;28;20445;-20
2023/03/29 02:14:45;;;;;;;2.75;1.90;;;5.00;1.00;;;;;;5076414;28;20040;-20
2023/03/29 02:17:22;;;;;;;8.80;2.30;;;5.00;1.00;;;;;;5076780;28;20051;-20
2023/03/29 02:20:13;;;;;;;4.00;2.00;;;4.90;1.00;;;;;;5076628;28;20056;-20
2023/03/29 02:23:05;;;;;;;4.78;2.53;;;5.00;1.00;;;;;;5075712;28;20106;-20
2023/03/29 02:25:31;;;;;;;7.35;2.85;;;5.00;1.00;;;;;;5076310;28;20077;-20
2023/03/29 02:27:58;;;;;;;3.88;2.10;;;5.00;1.00;;;;;;5076265;28;20052;-20
2023/03/29 02:30:29;;;;;;;3.47;2.67;;;5.00;1.00;;;;;;5075910;28;20048;-20
2023/03/29 02:33:08;;;;;;;7.25;2.55;;;5.00;1.00;;;;;;5076127;28;20043;-20
2023/03/29 02:35:47;;;;;;;6.13;3.17;;;5.00;1.00;;;;;;5075609;28;20140;-20
2023/03/29 02:38:13;;;;;;;5.32;3.35;;;5.00;1.00;;;;;;5076944;28;20052;-20
2023/03/29 02:40:41;;;;;;;7.53;3.72;;;5.00;1.00;;;;;;5075615;28;20045;-20
2023/03/29 02:43:08;;;;;;;5.60;3.30;;;5.00;1.00;;;;;;5075938;28;20051;-20
2023/03/29 02:45:35;;;;;;;6.20;3.40;;;5.00;1.00;;;;;;5076493;28;20463;-20
2023/03/29 02:48:07;;;;;;;5.93;2.92;;;5.00;13.00;;;;;;5075902;28;20067;-20
2023/03/29 02:50:37;;;;;;;8.95;4.45;;;5.00;30.70;;;;;;5075562;28;20052;-20
2023/03/29 02:53:11;;;;;;;9.20;4.22;;;5.00;41.40;;;;;;5076383;28;20475;-20
2023/03/29 02:55:37;;;;;;;6.20;4.03;;;5.00;30.70;;;;;;5076072;28;20044;-20
2023/03/29 02:58:07;;;;;;;8.73;3.35;;;5.00;49.30;;;;;;5075688;28;20446;-20
2023/03/29 03:00:39;;;;;;;6.50;3.65;;;5.10;57.50;;;;;;5075409;28;20498;-20
2023/03/29 03:03:06;;;;;;;6.47;3.78;;;5.10;12.70;;;;;;5076453;28;20402;-20
2023/03/29 03:05:33;;;;;;;7.15;3.28;;;5.00;1.00;;;;;;5076096;28;20052;-20
2023/03/29 03:07:59;;;;;;;6.25;3.42;;;5.10;1.00;;;;;;5075450;28;20044;-20
2023/03/29 03:10:25;;;;;;;8.27;3.47;;;5.10;1.00;;;;;;5075705;28;20055;-20
2023/03/29 03:12:51;;;;;;;7.25;4.25;;;5.10;1.00;;;;;;5057389;28;20127;-20
2023/03/29 03:15:17;;;;;;;4.93;2.70;;;5.10;1.00;;;;;;5075308;28;20132;-20
2023/03/29 03:17:43;;;;;;;6.53;3.88;;;5.00;1.00;;;;;;5075599;28;20052;-20
2023/03/29 03:20:14;;;;;;;5.32;3.85;;;5.10;1.00;;;;;;5075553;28;20119;-20
2023/03/29 03:22:47;;;;;;;6.35;3.63;;;5.10;1.00;;;;;;5075233;28;20089;-20
2023/03/29 03:25:19;;;;;;;7.35;4.05;;;5.10;1.00;;;;;;5075956;28;20470;-20
2023/03/29 03:27:47;;;;;;;7.72;3.97;;;5.10;1.00;;;;;;5075707;28;20045;-20
2023/03/29 03:30:13;;;;;;;5.70;3.75;;;5.10;1.00;;;;;;5075013;28;20048;-20
2023/03/29 03:32:40;;;;;;;11.18;4.10;;;5.00;1.00;;;;;;5075226;28;20087;-20
2023/03/29 03:35:06;;;;;;;7.03;4.38;;;5.10;1.00;;;;;;5058106;28;20482;-20
2023/03/29 03:37:32;;;;;;;10.25;4.63;;;5.10;1.00;;;;;;5074730;28;20049;-20
2023/03/29 03:39:58;;;;;;;7.50;4.97;;;5.10;2.00;;;;;;5074859;28;20063;-20
2023/03/29 03:42:29;;;;;;;6.28;4.00;;;5.10;32.00;;;;;;5074818;28;20044;-20
2023/03/29 03:44:55;;;;;;;7.00;4.20;;;5.10;14.60;;;;;;5074173;28;20399;-20
2023/03/29 03:47:21;;;;;;;5.40;3.35;;;5.10;2.50;;;;;;5074662;28;20044;-20
2023/03/29 03:49:47;;;;;;;5.13;3.08;;;5.10;1.00;;;;;;5074645;28;20048;-20
2023/03/29 03:52:13;;;;;;;6.65;4.35;;;5.10;1.00;;;;;;5072887;28;20106;-20
2023/03/29 03:54:39;;;;;;;11.60;4.63;;;5.10;5.30;;;;;;5074560;28;20080;-20
2023/03/29 03:57:05;;;;;;;6.00;3.38;;;5.10;1.00;;;;;;5074514;28;20090;-20
2023/03/29 03:59:31;;;;;;;5.45;3.30;;;5.10;1.00;;;;;;5073260;28;20483;-20
2023/03/29 04:01:57;;;;;;;8.65;4.88;;;5.20;1.00;;;;;;5057367;28;20117;-20
2023/03/29 04:04:23;;;;;;;5.68;3.55;;;5.10;1.00;;;;;;5074265;28;20463;-20
2023/03/29 04:06:49;;;;;;;6.38;3.20;;;5.20;1.00;;;;;;5074514;28;20098;-20
2023/03/29 04:09:15;;;;;;;5.90;4.10;;;5.20;1.00;;;;;;5056432;28;20040;-20
2023/03/29 04:11:41;;;;;;;9.00;4.00;;;5.30;1.00;;;;;;5074225;28;20126;-20
2023/03/29 04:14:06;;;;;;;7.40;3.75;;;5.40;1.00;;;;;;5072739;28;20402;-20
2023/03/29 04:16:32;;;;;;;8.57;4.68;;;5.20;1.00;;;;;;5074075;28;20113;-20
2023/03/29 04:18:58;;;;;;;7.65;4.47;;;5.30;1.00;;;;;;5074112;28;20040;-20
2023/03/29 04:21:24;;;;;;;6.80;4.07;;;5.30;1.00;;;;;;5073470;28;20131;-20
2023/03/29 04:23:50;;;;;;;6.35;3.70;;;5.30;1.00;;;;;;5056208;28;20087;-20
2023/03/29 04:26:16;;;;;;;7.30;3.20;;;5.30;1.00;;;;;;5072876;28;20048;-20
2023/03/29 04:28:42;;;;;;;8.77;3.45;;;5.30;1.00;;;;;;5073284;28;20049;-20
2023/03/29 04:31:12;;;;;;;6.35;3.40;;;5.30;1.00;;;;;;5072979;28;20490;-20
2023/03/29 04:33:38;;;;;;;5.88;3.35;;;5.30;1.00;;;;;;5073823;28;20425;-20
2023/03/29 04:36:05;;;;;;;6.65;4.40;;;5.30;1.00;;;;;;5072947;28;20049;-20
2023/03/29 04:38:34;;;;;;;5.95;3.45;;;5.40;1.00;;;;;;5073840;28;20127;-20
2023/03/29 04:41:02;;;;;;;9.13;4.10;;;5.30;1.00;;;;;;5072662;28;20087;-20
2023/03/29 04:43:29;;;;;;;8.13;4.32;;;5.30;1.00;;;;;;5073792;28;20043;-20
2023/03/29 04:45:56;;;;;;;10.10;4.22;;;5.30;1.00;;;;;;5073769;28;20079;-20
2023/03/29 04:48:22;;;;;;;6.13;4.45;;;5.40;1.00;;;;;;5073972;28;20098;-20
2023/03/29 04:50:48;;;;;;;8.18;4.53;;;5.30;1.00;;;;;;5072068;28;20064;-20
2023/03/29 04:53:14;;;;;;;8.57;4.50;;;5.40;1.00;;;;;;5074022;28;20052;-20
2023/03/29 04:55:40;;;;;;;5.50;3.70;;;5.40;1.00;;;;;;5073565;28;20055;-20
2023/03/29 04:58:06;;;;;;;8.30;4.22;;;5.30;1.00;;;;;;5072836;28;20475;-20
2023/03/29 05:00:32;;;;;;;9.00;4.53;;;5.40;1.00;;;;;;5055858;28;20044;-20
2023/03/29 05:02:58;;;;;;;8.65;4.35;;;5.40;1.00;;;;;;5073185;28;20531;-20
2023/03/29 05:05:24;;;;;;;8.55;4.78;;;5.40;1.00;;;;;;5073427;28;20123;-20
2023/03/29 05:07:50;;;;;;;8.35;4.45;;;5.40;1.00;;;;;;5073404;28;20063;-20
2023/03/29 05:10:16;;;;;;;9.13;4.32;;;5.40;1.00;;;;;;5073370;28;20395;-20
2023/03/29 05:12:42;;;;;;;8.75;4.63;;;5.40;1.00;;;;;;5073447;28;20048;-20
2023/03/29 05:15:08;;;;;;;9.40;6.07;;;5.40;1.00;;;;;;5072234;28;20491;-20
2023/03/29 05:17:34;;;;;;;9.15;5.00;;;5.40;8.00;;;;;;5073991;28;20131;-20
2023/03/29 05:20:00;;;;;;;10.27;4.75;;;5.40;1.00;;;;;;5072465;28;20053;-20
2023/03/29 05:22:27;;;;;;;7.80;4.53;;;5.40;1.00;;;;;;5072175;28;20106;-20
2023/03/29 05:24:53;;;;;;;8.15;4.18;;;5.40;4.70;;;;;;5073345;28;20128;-20
2023/03/29 05:27:21;;;;;;;9.25;4.85;;;5.40;1.00;;;;;;5072413;28;20127;-20
2023/03/29 05:29:47;;;;;;;9.40;4.68;;;5.40;8.10;;;;;;5073315;28;20040;-20
2023/03/29 05:32:13;;;;;;;10.60;5.45;;;5.40;15.50;;;;;;5073198;28;20039;-20
2023/03/29 05:34:39;;;;;;;10.05;5.55;;;5.50;29.20;;;;;;5074073;28;20044;-20
2023/03/29 05:37:06;;;;;;;6.88;4.65;;;5.50;25.20;;;;;;5073217;28;20479;-20
2023/03/29 05:39:32;;;;;;;7.97;4.88;;;5.50;14.20;;;;;;5073236;28;20080;-20
2023/03/29 05:41:59;;;;;;;13.30;5.25;;;5.40;48.00;;;;;;5073201;28;20098;-20
2023/03/29 05:44:25;;;;;;;8.30;5.57;;;5.50;50.50;;;;;;5072215;28;20479;-20
2023/03/29 05:46:51;;;;;;;6.97;4.63;;;5.50;70.10;;;;;;5073130;28;20053;-20
2023/03/29 05:49:17;;;;;;;10.95;5.80;;;5.50;93.10;;;;;;5073075;28;20098;-20
2023/03/29 05:51:44;;;;;;;8.23;4.43;;;5.60;80.60;;;;;;5071455;28;20056;-20
2023/03/29 05:54:10;;;;;;;8.95;5.53;;;5.60;99.90;;;;;;5055476;28;20048;-20
2023/03/29 05:56:36;;;;;;;8.25;4.72;;;5.60;99.90;;;;;;5073126;28;20055;-20
2023/03/29 05:59:03;;;;;;;8.73;5.00;;;5.60;99.90;;;;;;5073047;28;20045;-21
2023/03/29 06:01:29;;;;;;;8.35;5.10;;;5.60;99.90;;;;;;5072051;28;20048;-20
2023/03/29 06:03:56;;;;;;;8.52;5.30;;;5.60;99.90;;;;;;5073839;28;20151;-20
2023/03/29 06:06:22;;;;;;;8.55;5.20;;;5.60;99.90;;;;;;5072674;28;20398;-20
2023/03/29 06:08:47;;;;;;;10.43;6.30;;;5.60;99.90;;;;;;5055023;28;20048;-20
2023/03/29 06:11:14;;;;;;;10.55;6.82;;;5.70;99.90;;;;;;5071816;28;20051;-20
2023/03/29 06:13:40;;;;;;;10.68;5.55;;;5.60;99.90;;;;;;5072466;28;20398;-20
2023/03/29 06:16:08;;;;;;;12.45;6.25;;;5.60;99.90;;;;;;5057745;28;20094;-20
2023/03/29 06:18:35;;;;;;;7.45;5.65;;;5.60;99.90;;;;;;5076707;28;20142;-20
2023/03/29 06:21:02;;;;;;;10.25;6.18;;;5.60;99.90;;;;;;5076343;28;20049;-20
2023/03/29 06:23:29;;;;;;;11.02;6.53;;;5.60;99.90;;;;;;5076289;28;20048;-20
2023/03/29 06:25:55;;;;;;;17.13;6.93;;;5.50;99.90;;;;;;5076293;28;20109;-21
2023/03/29 06:28:22;;;;;;;15.40;7.20;;;5.50;99.90;;;;;;5076234;28;20501;-20
2023/03/29 06:30:48;;;;;;;10.95;6.75;;;5.40;99.90;;;;;;5076743;28;20402;-20
2023/03/29 06:33:15;;;;;;;13.15;7.43;;;5.40;99.90;;;;;;5075764;28;20037;-20
2023/03/29 06:35:46;;;;;;;12.10;6.90;;;5.40;99.90;;;;;;5076091;28;20055;-20
2023/03/29 06:38:13;;;;;;;14.57;7.43;;;5.50;99.90;;;;;;5076653;28;20048;-20
2023/03/29 06:40:39;;;;;;;25.95;8.30;;;5.50;99.90;;;;;;5059027;28;20445;-20
2023/03/29 06:43:06;;;;;;;9.65;6.35;;;5.50;99.90;;;;;;5074681;28;20124;-20
2023/03/29 06:45:34;;;;;;;11.02;7.07;;;5.60;99.90;;;;;;5074977;28;20406;-20
2023/03/29 06:48:00;;;;;;;11.00;7.15;;;5.60;99.90;;;;;;5076514;28;20052;-20
2023/03/29 06:50:26;;;;;;;15.00;7.75;;;5.70;99.90;;;;;;5075458;28;20151;-21
2023/03/29 06:52:52;;;;;;;12.35;8.15;;;5.70;99.90;;;;;;5075129;28;20438;-20
2023/03/29 06:55:19;;;;;;;13.23;8.38;;;5.70;99.90;;;;;;5075413;28;20099;-20
2023/03/29 06:57:45;;;;;;;10.70;8.25;;;5.80;99.90;;;;;;5058237;28;20128;-20
2023/03/29 07:00:18;;;;;;;13.48;7.45;;;5.90;99.90;;;;;;5076228;28;20127;-19
2023/03/29 07:02:48;;;;;;;14.65;8.00;;;5.90;99.90;;;;;;5075407;28;20050;-20
2023/03/29 07:05:15;;;;;;;12.65;7.85;;;6.10;99.90;;;;;;5075555;28;20048;-20
2023/03/29 07:08:30;;;;;;;13.18;7.35;;;6.10;99.90;;;;;;5074824;28;20048;-20
2023/03/29 07:10:40;;;;;;;11.60;6.82;;;6.20;99.90;;;;;;5074864;28;20074;-19
2023/03/29 07:13:07;;;;;;;12.23;7.35;;;6.20;99.90;;;;;;5058411;28;20128;-19
2023/03/29 07:15:34;;;;;;;11.75;7.90;;;6.30;99.90;;;;;;5075255;28;20049;-19
2023/03/29 07:18:02;;;;;;;12.70;7.93;;;6.30;99.90;;;;;;5075327;28;20049;-19
2023/03/29 07:20:28;;;;;;;11.95;6.78;;;6.30;99.90;;;;;;5057593;28;20109;-19
2023/03/29 07:22:54;;;;;;;12.73;6.45;;;6.40;99.90;;;;;;5074054;28;20044;-19
2023/03/29 07:25:22;;;;;;;14.98;8.23;;;6.30;99.90;;;;;;5057525;28;20049;-19
2023/03/29 07:27:49;;;;;;;12.65;7.93;;;6.40;99.90;;;;;;5073984;28;20079;-19
2023/03/29 07:30:18;;;;;;;13.32;7.78;;;6.40;99.90;;;;;;5075611;28;20052;-20
2023/03/29 07:32:45;;;;;;;13.63;7.78;;;6.40;99.90;;;;;;5075771;28;20044;-19
2023/03/29 07:35:13;;;;;;;11.13;7.25;;;6.40;99.90;;;;;;5074976;28;20044;-19
2023/03/29 07:37:41;;;;;;;12.85;8.43;;;6.50;99.90;;;;;;5074912;28;20052;-19
2023/03/29 07:40:22;;;;;;;8.63;5.85;;;6.50;99.90;;;;;;5073610;28;20051;-19
2023/03/29 07:42:53;;;;;;;10.85;7.88;;;6.50;99.90;;;;;;5074058;28;20114;-19
2023/03/29 07:45:20;;;;;;;10.02;6.32;;;6.50;99.90;;;;;;5075674;28;20400;-19
2023/03/29 07:47:47;;;;;;;11.80;7.20;;;6.60;99.90;;;;;;5075301;28;20182;-20
2023/03/29 07:50:17;;;;;;;14.60;7.25;;;6.70;99.90;;;;;;5074493;28;20056;-20
2023/03/29 07:52:43;;;;;;;11.52;6.55;;;6.70;99.90;;;;;;5074516;28;20475;-20
2023/03/29 07:55:11;;;;;;;10.13;6.63;;;6.80;99.90;;;;;;5074450;28;20102;-19
2023/03/29 07:57:37;;;;;;;12.20;6.47;;;6.80;99.90;;;;;;5073344;28;20437;-19
2023/03/29 08:00:10;;;;;;;13.93;6.25;;;6.80;99.90;;;;;;5075045;28;20056;-19
2023/03/29 08:02:36;;;;;;;12.45;5.95;;;6.80;99.90;;;;;;5074482;28;20045;-19
2023/03/29 08:05:01;;;;;;;10.13;5.82;;;6.90;99.90;;;;;;5073274;28;20106;-20
2023/03/29 08:07:27;;;;;;;8.75;6.65;;;6.80;99.90;;;;;;5074590;28;20102;-20
2023/03/29 08:09:53;;;;;;;10.18;6.88;;;7.00;99.90;;;;;;5075129;28;20048;-19
2023/03/29 08:12:19;;;;;;;13.00;5.88;;;7.00;99.90;;;;;;5073977;28;20044;-19
2023/03/29 08:14:45;;;;;;;12.05;6.88;;;7.00;99.90;;;;;;5073992;28;20056;-19
2023/03/29 08:17:11;;;;;;;14.07;6.80;;;7.20;99.90;;;;;;5073559;28;20049;-19
2023/03/29 08:19:37;;;;;;;16.15;6.90;;;7.40;99.90;;;;;;5074136;28;20051;-20
2023/03/29 08:22:03;;;;;;;10.50;6.88;;;7.50;99.90;;;;;;5074870;28;20080;-20
2023/03/29 08:24:29;;;;;;;11.80;7.28;;;7.60;99.90;;;;;;5073354;28;20080;-20
2023/03/29 08:26:55;;;;;;;12.05;6.90;;;7.60;99.90;;;;;;5074066;28;20095;-20
2023/03/29 08:29:21;;;;;;;10.95;6.88;;;7.60;99.90;;;;;;5073953;28;20045;-20
2023/03/29 08:31:47;;;;;;;11.60;7.13;;;7.60;99.90;;;;;;5073860;28;20135;-20
2023/03/29 08:34:13;;;;;;;8.50;6.15;;;7.80;99.90;;;;;;5056257;28;20128;-20
2023/03/29 08:36:39;;;;;;;11.43;5.57;;;7.90;42.60;;;;;;5073194;28;20052;-20
2023/03/29 08:39:05;;;;;;;9.30;6.40;;;8.10;1.00;;;;;;5074253;28;20545;-20
2023/03/29 08:41:42;;;;;;;10.05;5.75;;;8.30;1.00;;;;;;5073760;28;20045;-20
2023/03/29 08:44:33;;;;;;;12.95;6.25;;;8.30;1.00;;;;;;5073809;28;20099;-20
2023/03/29 08:47:14;;;;;;;9.50;5.15;;;8.20;1.00;;;;;;5073919;28;20045;-20
2023/03/29 08:49:42;;;;;;;9.98;5.75;;;8.20;1.00;;;;;;5074285;28;20442;-20
2023/03/29 08:52:20;;;;;;;8.65;6.55;;;8.20;1.00;;;;;;5073657;28;20052;-20
2023/03/29 08:54:50;;;;;;;9.68;6.07;;;8.40;1.00;;;;;;5073696;28;20087;-20
2023/03/29 08:57:25;;;;;;;14.02;6.75;;;8.60;1.00;;;;;;5073687;28;20483;-20
2023/03/29 08:59:55;;;;;;;10.73;6.13;;;8.70;99.90;;;;;;5073341;28;20483;-20
2023/03/29 09:02:27;;;;;;;11.25;6.28;;;8.70;99.90;;;;;;5073787;28;20040;-20
2023/03/29 09:05:01;;;;;;;10.63;5.57;;;8.80;99.90;;;;;;5073624;28;20044;-20
2023/03/29 09:07:27;;;;;;;9.40;5.85;;;8.80;99.90;;;;;;5073925;28;20041;-20
2023/03/29 09:09:53;;;;;;;12.02;6.18;;;9.00;99.90;;;;;;5073489;28;20398;-20
2023/03/29 09:12:29;;;;;;;11.85;6.90;;;9.10;99.90;;;;;;5073993;28;20131;-20
2023/03/29 09:15:01;;;;;;;12.13;6.80;;;9.00;99.90;;;;;;5073953;28;20368;-20
2023/03/29 09:18:05;;;;;;;16.27;7.30;;;9.10;99.90;;;;;;5073379;28;20060;-20
2023/03/29 09:20:37;;;;;;;10.80;6.30;;;9.10;99.90;;;;;;5071348;28;20056;-20
2023/03/29 09:23:35;;;;;;;8.80;4.65;;;9.30;99.90;;;;;;5072968;28;20403;-20
2023/03/29 09:26:35;;;;;;;10.07;5.07;;;9.30;99.90;;;;;;5073931;28;20051;-20
2023/03/29 09:29:30;;;;;;;9.95;6.38;;;9.20;99.90;;;;;;5073024;28;20059;-20
2023/03/29 09:31:57;;;;;;;13.80;7.00;;;9.20;99.90;;;;;;5073854;28;20090;-20
2023/03/29 09:34:47;;;;;;;9.30;5.60;;;9.20;99.90;;;;;;5072581;28;20056;-20
2023/03/29 09:37:30;;;;;;;11.95;6.35;;;9.30;99.90;;;;;;5073297;28;20394;-20
2023/03/29 09:39:56;;;;;;;;;;;9.30;99.90;;;;;;5073096;28;20044;-20
2023/03/29 09:42:26;;;;;;;15.88;7.40;;;9.50;99.90;;;;;;5073261;28;19920;-20
2023/03/29 09:45:00;;;;;;;16.02;7.50;;;9.80;99.90;;;;;;5056463;28;20049;-20
2023/03/29 09:47:52;;;;;;;14.70;7.95;;;9.80;99.90;;;;;;5073480;28;20060;-20
2023/03/29 09:50:40;;;;;;;12.65;6.78;;;10.00;99.90;;;;;;5071707;28;20140;-20
2023/03/29 09:53:07;;;;;;;15.77;7.80;;;9.80;99.90;;;;;;5076794;28;20091;-20
2023/03/29 09:55:35;;;;;;;15.27;6.93;;;9.90;99.90;;;;;;5076857;28;20101;-20
2023/03/29 09:58:15;;;;;;;17.10;7.65;;;9.80;98.10;;;;;;5076848;28;20048;-20
2023/03/29 10:00:41;;;;;;;13.20;6.95;;;9.80;95.50;;;;;;5076635;28;20044;-20
2023/03/29 10:03:07;;;;;;;12.95;6.30;;;9.80;99.90;;;;;;5077517;28;20075;-20
2023/03/29 10:05:39;;;;;;;13.73;7.60;;;9.70;99.80;;;;;;5077490;28;20567;-20
2023/03/29 10:08:18;;;;;;;19.35;8.80;;;9.70;90.60;;;;;;5075988;28;20060;-20
2023/03/29 10:10:44;;;;;;;13.90;8.13;;;9.80;99.90;;;;;;5075437;28;20044;-20
2023/03/29 10:13:17;;;;;;;14.57;8.02;;;9.90;99.90;;;;;;5075224;28;20137;-20
2023/03/29 10:15:43;;;;;;;;;;;9.90;99.90;;;;;;5077188;28;20418;-21
2023/03/29 10:18:12;;;;;;;14.55;6.45;;;9.90;99.90;;;;;;5075243;28;19921;-20
2023/03/29 10:20:39;;;;;;;13.70;7.10;;;10.00;99.90;;;;;;5077180;28;20045;-20
2023/03/29 10:23:06;;;;;;;17.42;7.38;;;10.10;99.90;;;;;;5076286;28;20043;-20
2023/03/29 10:25:39;;;;;;;15.00;8.02;;;9.90;99.90;;;;;;5076798;28;20052;-20
2023/03/29 10:28:16;;;;;;;15.10;8.25;;;10.00;99.90;;;;;;5076864;28;20047;-20
2023/03/29 10:30:44;;;;;;;17.92;9.35;;;10.00;99.90;;;;;;5076020;28;20129;-20
2023/03/29 10:33:19;;;;;;;14.77;8.80;;;10.00;99.90;;;;;;5075010;28;20076;-20
2023/03/29 10:35:47;;;;;;;17.65;8.48;;;10.20;99.90;;;;;;5076084;28;20556;-20
2023/03/29 10:38:16;;;;;;;15.38;8.85;;;10.40;99.90;;;;;;5076068;28;20048;-20
2023/03/29 10:40:47;;;;;;;15.32;8.73;;;10.40;99.90;;;;;;5075972;28;20068;-20
2023/03/29 10:43:20;;;;;;;18.88;10.55;;;10.20;99.90;;;;;;5075972;28;20040;-20
2023/03/29 10:45:52;;;;;;;18.47;9.90;;;10.40;99.90;;;;;;5075887;28;20052;-20
2023/03/29 10:48:24;;;;;;;16.98;9.77;;;10.30;99.90;;;;;;5076190;28;20401;-20
2023/03/29 10:50:52;;;;;;;22.80;11.45;;;10.40;99.90;;;;;;5076268;28;20061;-20
2023/03/29 10:53:29;;;;;;;26.02;11.90;;;10.50;99.90;;;;;;5075587;28;20044;-20
2023/03/29 10:56:23;;;;;;;18.88;10.30;;;10.90;99.90;;;;;;5075656;28;20344;-20
2023/03/29 10:59:13;;;;;;;16.58;8.25;;;11.00;99.90;;;;;;5075542;28;20097;-20
2023/03/29 11:02:00;;;;;;;12.13;9.18;;;11.20;1.00;;;;;;5075165;28;20132;-20
2023/03/29 11:04:58;;;;;;;18.25;9.77;;;11.50;6.40;;;;;;5075444;28;20052;-20
2023/03/29 11:07:45;;;;;;;12.90;8.80;;;11.80;1.00;;;;;;5075555;28;20048;-20
2023/03/29 11:10:37;;;;;;;19.77;10.25;;;11.80;1.00;;;;;;5075502;28;20057;-20
2023/03/29 11:13:26;;;;;;;17.15;10.35;;;12.20;1.00;;;;;;5075312;28;20044;-21
2023/03/29 11:16:08;;;;;;;20.27;10.77;;;12.30;99.90;;;;;;5074755;28;20048;-21
2023/03/29 11:18:59;;;;;;;17.48;10.95;;;12.50;99.90;;;;;;5074836;28;20313;-21
2023/03/29 11:22:12;;;;;;;18.88;9.90;;;12.90;99.90;;;;;;5074322;28;20127;-21
2023/03/29 11:24:59;;;;;;;15.75;10.30;;;12.70;58.50;;;;;;5074022;28;20147;-21
2023/03/29 11:28:03;;;;;;;18.17;9.50;;;13.00;99.90;;;;;;5075158;28;20053;-21
2023/03/29 11:30:44;;;;;;;16.98;10.07;;;12.70;95.20;;;;;;5072647;28;20394;-21
2023/03/29 11:33:51;;;;;;;17.40;9.63;;;12.70;99.90;;;;;;5073412;28;20071;-21
2023/03/29 11:36:39;;;;;;;17.40;8.77;;;12.60;99.90;;;;;;5074268;28;20067;-20
2023/03/29 11:39:14;;;;;;;14.35;9.35;;;12.20;99.90;;;;;;5074934;28;20052;-21
2023/03/29 11:41:48;;;;;;;13.50;9.57;;;12.10;1.00;;;;;;5075382;28;20135;-21
2023/03/29 11:44:23;;;;;;;15.07;10.23;;;12.20;1.00;;;;;;5075674;28;20460;-21
2023/03/29 11:46:53;;;;;;;15.60;8.88;;;12.40;1.00;;;;;;5075547;28;20128;-20
2023/03/29 11:49:31;;;;;;;12.95;8.38;;;12.40;1.00;;;;;;5075535;28;20080;-21
2023/03/29 11:52:03;;;;;;;16.90;9.55;;;12.40;1.00;;;;;;5072882;28;20111;-21
2023/03/29 11:54:39;;;;;;;21.65;12.00;;;12.30;1.00;;;;;;5075161;28;20100;-21
2023/03/29 11:57:46;;;;;;;15.80;10.32;;;12.50;1.00;;;;;;5074466;28;20077;-21
2023/03/29 12:00:15;;;;;;;17.90;11.50;;;12.50;99.90;;;;;;5073021;28;20444;-21
2023/03/29 12:02:51;;;;;;;15.57;10.18;;;12.60;1.00;;;;;;5070409;28;20083;-21
2023/03/29 12:05:22;;;;;;;15.68;10.63;;;12.60;1.00;;;;;;5073628;28;20054;-21
2023/03/29 12:07:58;;;;;;;18.73;10.88;;;12.90;1.00;;;;;;5074387;28;20406;-21
2023/03/29 12:10:32;;;;;;;16.30;10.07;;;13.00;99.90;;;;;;5074272;28;20063;-21
2023/03/29 12:13:06;;;;;;;13.80;10.18;;;12.70;99.90;;;;;;5073752;28;20376;-21
2023/03/29 12:15:41;;;;;;;18.27;11.18;;;13.10;1.00;;;;;;5074097;28;20054;-21
2023/03/29 12:18:21;;;;;;;17.15;10.73;;;13.30;99.90;;;;;;5074022;28;20091;-21
2023/03/29 12:21:00;;;;;;;17.83;10.90;;;13.30;99.90;;;;;;5073828;28;20438;-21
2023/03/29 12:23:32;;;;;;;21.42;11.20;;;13.30;99.90;;;;;;5074957;28;20064;-22
2023/03/29 12:26:19;;;;;;;15.80;11.05;;;13.60;99.90;;;;;;5056727;28;20221;-21
2023/03/29 12:28:48;;;;;;;15.18;10.48;;;13.70;99.90;;;;;;5073979;28;20110;-21
2023/03/29 12:31:31;;;;;;;14.48;10.13;;;13.30;99.90;;;;;;5074174;28;20047;-22
2023/03/29 12:34:05;;;;;;;;;;;13.00;99.90;;;;;;5075099;28;20044;-21
2023/03/29 12:37:00;;;;;;;15.35;9.35;;;13.00;1.00;;;;;;5072671;28;19920;-21
2023/03/29 12:39:28;;;;;;;14.75;9.23;;;13.20;1.00;;;;;;5073855;28;20398;-21
2023/03/29 12:42:17;;;;;;;14.88;10.63;;;12.80;99.90;;;;;;5072771;28;20048;-21
2023/03/29 12:44:50;;;;;;;15.02;10.48;;;12.90;1.00;;;;;;5073771;28;20088;-21
2023/03/29 12:47:23;;;;;;;14.18;9.07;;;13.00;1.00;;;;;;5074488;28;20137;-21
2023/03/29 12:49:56;;;;;;;19.90;11.48;;;12.90;1.00;;;;;;5072709;28;20052;-21
2023/03/29 12:52:33;;;;;;;17.85;11.77;;;12.80;1.00;;;;;;5072344;28;20052;-21
2023/03/29 12:55:19;;;;;;;14.50;10.82;;;12.80;99.90;;;;;;5074203;28;20506;-21
2023/03/29 12:57:59;;;;;;;15.90;10.48;;;12.70;1.00;;;;;;5073608;28;20053;-21
2023/03/29 13:00:53;;;;;;;15.57;9.05;;;12.90;99.90;;;;;;5073583;28;20123;-21
2023/03/29 13:03:46;;;;;;;15.65;10.50;;;12.90;1.00;;;;;;5071768;28;20048;-21
2023/03/29 13:06:12;;;;;;;16.92;10.52;;;12.80;1.00;;;;;;5074195;28;20097;-21
2023/03/29 13:08:41;;;;;;;15.10;10.35;;;12.80;59.20;;;;;;5056205;28;20139;-21
2023/03/29 13:11:24;;;;;;;17.77;11.05;;;12.80;13.30;;;;;;5073481;28;20402;-21
2023/03/29 13:13:51;;;;;;;15.07;11.48;;;12.80;61.70;;;;;;5074349;28;20169;-21
2023/03/29 13:16:32;;;;;;;16.67;11.77;;;12.80;18.60;;;;;;5072462;28;20053;-21
2023/03/29 13:19:10;;;;;;;15.05;11.68;;;13.00;22.10;;;;;;5073792;28;20464;-21